sensor_id;sensor_type;location;lat;lon;timestamp;temperature;humidity
26270;DHT22;15937;50.612;6.656;2022-07-23T00:01:16;18.60;99.90
26270;DHT22;15937;50.612;6.656;2022-07-23T00:05:28;18.30;99.90
26270;DHT22;15937;50.612;6.656;2022-07-23T00:09:31;18.40;99.90
26270;DHT22;15937;50.612;6.656;2022-07-23T00:13:32;18.20;99.90
26270;DHT22;15937;50.612;6.656;2022-07-23T00:17:34;18.10;99.90
26270;DHT22;15937;50.612;6.656;2022-07-23T00:21:36;18.10;99.90
26270;DHT22;15937;50.612;6.656;2022-07-23T00:25:38;18.00;99.90
26270;DHT22;15937;50.612;6.656;2022-07-23T00:29:40;18.00;99.90
26270;DHT22;15937;50.612;6.656;2022-07-23T00:33:41;17.80;99.90
26270;DHT22;15937;50.612;6.656;2022-07-23T00:37:43;17.60;99.90
26270;DHT22;15937;50.612;6.656;2022-07-23T00:41:45;17.50;99.90
26270;DHT22;15937;50.612;6.656;2022-07-23T00:45:47;17.40;99.90
26270;DHT22;15937;50.612;6.656;2022-07-23T00:49:49;17.20;99.90
26270;DHT22;15937;50.612;6.656;2022-07-23T00:53:51;17.10;99.90
26270;DHT22;15937;50.612;6.656;2022-07-23T00:57:53;17.10;99.90
26270;DHT22;15937;50.612;6.656;2022-07-23T01:01:56;17.00;99.90
26270;DHT22;15937;50.612;6.656;2022-07-23T01:05:58;17.00;99.90
26270;DHT22;15937;50.612;6.656;2022-07-23T01:10:02;17.00;99.90
26270;DHT22;15937;50.612;6.656;2022-07-23T01:14:12;17.10;99.90
26270;DHT22;15937;50.612;6.656;2022-07-23T01:18:13;17.10;99.90
26270;DHT22;15937;50.612;6.656;2022-07-23T01:22:18;17.10;99.90
26270;DHT22;15937;50.612;6.656;2022-07-23T01:26:20;17.10;99.90
26270;DHT22;15937;50.612;6.656;2022-07-23T01:30:24;17.10;99.90
26270;DHT22;15937;50.612;6.656;2022-07-23T01:34:26;17.00;99.90
26270;DHT22;15937;50.612;6.656;2022-07-23T01:38:28;17.00;99.90
26270;DHT22;15937;50.612;6.656;2022-07-23T01:42:29;17.10;99.90
26270;DHT22;15937;50.612;6.656;2022-07-23T01:46:31;17.40;99.90
26270;DHT22;15937;50.612;6.656;2022-07-23T01:50:33;17.00;99.90
26270;DHT22;15937;50.612;6.656;2022-07-23T01:54:35;17.00;99.90
26270;DHT22;15937;50.612;6.656;2022-07-23T01:58:37;17.00;99.90
26270;DHT22;15937;50.612;6.656;2022-07-23T02:02:38;17.00;99.90
26270;DHT22;15937;50.612;6.656;2022-07-23T02:06:40;16.90;99.90
26270;DHT22;15937;50.612;6.656;2022-07-23T02:10:42;16.80;99.90
26270;DHT22;15937;50.612;6.656;2022-07-23T02:14:44;16.90;99.90
26270;DHT22;15937;50.612;6.656;2022-07-23T02:18:46;16.90;99.90
26270;DHT22;15937;50.612;6.656;2022-07-23T02:22:48;16.80;99.90
26270;DHT22;15937;50.612;6.656;2022-07-23T02:26:50;16.80;99.90
26270;DHT22;15937;50.612;6.656;2022-07-23T02:30:51;16.90;99.90
26270;DHT22;15937;50.612;6.656;2022-07-23T02:34:53;17.00;99.90
26270;DHT22;15937;50.612;6.656;2022-07-23T02:38:55;17.30;99.90
26270;DHT22;15937;50.612;6.656;2022-07-23T02:42:57;17.40;99.90
26270;DHT22;15937;50.612;6.656;2022-07-23T02:46:59;17.30;99.90
26270;DHT22;15937;50.612;6.656;2022-07-23T02:51:00;17.40;99.90
26270;DHT22;15937;50.612;6.656;2022-07-23T02:55:03;16.90;99.90
26270;DHT22;15937;50.612;6.656;2022-07-23T02:59:05;16.70;99.90
26270;DHT22;15937;50.612;6.656;2022-07-23T03:03:06;16.60;99.90
26270;DHT22;15937;50.612;6.656;2022-07-23T03:07:09;16.70;99.90
26270;DHT22;15937;50.612;6.656;2022-07-23T03:11:10;16.80;99.90
26270;DHT22;15937;50.612;6.656;2022-07-23T03:15:12;17.00;99.90
26270;DHT22;15937;50.612;6.656;2022-07-23T03:19:14;17.40;99.90
26270;DHT22;15937;50.612;6.656;2022-07-23T03:23:16;17.20;99.90
26270;DHT22;15937;50.612;6.656;2022-07-23T03:27:18;17.20;99.90
26270;DHT22;15937;50.612;6.656;2022-07-23T03:31:20;17.30;99.90
26270;DHT22;15937;50.612;6.656;2022-07-23T03:35:23;17.60;99.90
26270;DHT22;15937;50.612;6.656;2022-07-23T03:39:25;17.50;99.90
26270;DHT22;15937;50.612;6.656;2022-07-23T03:43:27;17.30;99.90
26270;DHT22;15937;50.612;6.656;2022-07-23T03:47:29;17.10;99.90
26270;DHT22;15937;50.612;6.656;2022-07-23T03:51:30;17.30;99.90
26270;DHT22;15937;50.612;6.656;2022-07-23T03:55:32;16.70;99.90
26270;DHT22;15937;50.612;6.656;2022-07-23T03:59:34;17.20;99.90
26270;DHT22;15937;50.612;6.656;2022-07-23T04:03:35;17.10;99.90
26270;DHT22;15937;50.612;6.656;2022-07-23T04:07:37;17.20;99.90
26270;DHT22;15937;50.612;6.656;2022-07-23T04:11:39;16.90;99.90
26270;DHT22;15937;50.612;6.656;2022-07-23T04:15:40;16.90;99.90
26270;DHT22;15937;50.612;6.656;2022-07-23T04:19:42;17.10;99.90
26270;DHT22;15937;50.612;6.656;2022-07-23T04:23:45;17.10;99.90
26270;DHT22;15937;50.612;6.656;2022-07-23T04:27:47;17.20;99.90
26270;DHT22;15937;50.612;6.656;2022-07-23T04:31:49;17.30;99.90
26270;DHT22;15937;50.612;6.656;2022-07-23T04:35:51;17.10;99.90
26270;DHT22;15937;50.612;6.656;2022-07-23T04:39:53;17.30;99.90
26270;DHT22;15937;50.612;6.656;2022-07-23T04:43:55;17.30;99.90
26270;DHT22;15937;50.612;6.656;2022-07-23T04:47:57;17.20;99.90
26270;DHT22;15937;50.612;6.656;2022-07-23T04:51:59;17.10;99.90
26270;DHT22;15937;50.612;6.656;2022-07-23T04:56:01;17.00;99.90
26270;DHT22;15937;50.612;6.656;2022-07-23T05:00:04;16.80;99.90
26270;DHT22;15937;50.612;6.656;2022-07-23T05:04:06;16.90;99.90
26270;DHT22;15937;50.612;6.656;2022-07-23T05:08:08;17.00;99.90
26270;DHT22;15937;50.612;6.656;2022-07-23T05:12:10;16.90;99.90
26270;DHT22;15937;50.612;6.656;2022-07-23T05:16:12;17.00;99.90
26270;DHT22;15937;50.612;6.656;2022-07-23T05:20:14;17.10;99.90
26270;DHT22;15937;50.612;6.656;2022-07-23T05:24:16;17.00;99.90
26270;DHT22;15937;50.612;6.656;2022-07-23T05:28:18;16.90;99.90
26270;DHT22;15937;50.612;6.656;2022-07-23T05:32:23;17.20;99.90
26270;DHT22;15937;50.612;6.656;2022-07-23T05:36:25;17.00;99.90
26270;DHT22;15937;50.612;6.656;2022-07-23T05:40:27;17.20;99.90
26270;DHT22;15937;50.612;6.656;2022-07-23T05:44:28;17.20;99.90
26270;DHT22;15937;50.612;6.656;2022-07-23T05:48:35;17.10;99.90
26270;DHT22;15937;50.612;6.656;2022-07-23T05:52:37;17.10;99.90
26270;DHT22;15937;50.612;6.656;2022-07-23T05:56:39;17.20;99.90
26270;DHT22;15937;50.612;6.656;2022-07-23T06:00:41;17.60;99.90
26270;DHT22;15937;50.612;6.656;2022-07-23T06:04:43;17.70;99.90
26270;DHT22;15937;50.612;6.656;2022-07-23T06:08:45;17.60;99.90
26270;DHT22;15937;50.612;6.656;2022-07-23T06:12:47;17.70;99.90
26270;DHT22;15937;50.612;6.656;2022-07-23T06:16:48;17.60;99.90
26270;DHT22;15937;50.612;6.656;2022-07-23T06:20:50;17.60;99.90
26270;DHT22;15937;50.612;6.656;2022-07-23T06:24:58;17.80;99.90
26270;DHT22;15937;50.612;6.656;2022-07-23T06:29:00;17.90;99.90
26270;DHT22;15937;50.612;6.656;2022-07-23T06:33:03;18.00;99.90
26270;DHT22;15937;50.612;6.656;2022-07-23T06:37:04;18.40;99.90
26270;DHT22;15937;50.612;6.656;2022-07-23T06:41:07;18.00;99.90
26270;DHT22;15937;50.612;6.656;2022-07-23T06:45:09;18.60;99.90
26270;DHT22;15937;50.612;6.656;2022-07-23T06:49:11;18.40;99.90
26270;DHT22;15937;50.612;6.656;2022-07-23T06:53:13;18.40;99.90
26270;DHT22;15937;50.612;6.656;2022-07-23T06:57:14;19.10;99.90
26270;DHT22;15937;50.612;6.656;2022-07-23T07:01:16;19.00;99.90
26270;DHT22;15937;50.612;6.656;2022-07-23T07:05:18;19.20;99.90
26270;DHT22;15937;50.612;6.656;2022-07-23T07:09:20;19.20;99.90
26270;DHT22;15937;50.612;6.656;2022-07-23T07:13:22;19.40;99.90
26270;DHT22;15937;50.612;6.656;2022-07-23T07:17:24;19.60;99.90
26270;DHT22;15937;50.612;6.656;2022-07-23T07:21:25;19.50;99.90
26270;DHT22;15937;50.612;6.656;2022-07-23T07:25:27;19.10;99.90
26270;DHT22;15937;50.612;6.656;2022-07-23T07:29:29;19.80;99.90
26270;DHT22;15937;50.612;6.656;2022-07-23T07:33:31;19.60;99.90
26270;DHT22;15937;50.612;6.656;2022-07-23T07:37:33;19.40;99.90
26270;DHT22;15937;50.612;6.656;2022-07-23T07:41:35;19.60;99.90
26270;DHT22;15937;50.612;6.656;2022-07-23T07:45:36;19.50;99.90
26270;DHT22;15937;50.612;6.656;2022-07-23T07:49:38;19.90;99.90
26270;DHT22;15937;50.612;6.656;2022-07-23T07:53:40;20.00;99.90
26270;DHT22;15937;50.612;6.656;2022-07-23T07:57:42;20.70;99.90
26270;DHT22;15937;50.612;6.656;2022-07-23T08:01:49;20.60;99.90
26270;DHT22;15937;50.612;6.656;2022-07-23T08:05:51;20.40;99.90
26270;DHT22;15937;50.612;6.656;2022-07-23T08:09:53;20.30;99.90
26270;DHT22;15937;50.612;6.656;2022-07-23T08:13:55;20.50;99.90
26270;DHT22;15937;50.612;6.656;2022-07-23T08:17:58;20.80;99.90
26270;DHT22;15937;50.612;6.656;2022-07-23T08:22:00;20.80;99.90
26270;DHT22;15937;50.612;6.656;2022-07-23T08:26:02;21.30;99.90
26270;DHT22;15937;50.612;6.656;2022-07-23T08:30:04;21.30;99.90
26270;DHT22;15937;50.612;6.656;2022-07-23T08:34:06;20.70;99.90
26270;DHT22;15937;50.612;6.656;2022-07-23T08:38:09;21.30;99.90
26270;DHT22;15937;50.612;6.656;2022-07-23T08:42:13;21.00;99.90
26270;DHT22;15937;50.612;6.656;2022-07-23T08:46:17;21.30;99.90
26270;DHT22;15937;50.612;6.656;2022-07-23T08:50:21;21.00;99.90
26270;DHT22;15937;50.612;6.656;2022-07-23T08:54:23;21.50;99.90
26270;DHT22;15937;50.612;6.656;2022-07-23T08:58:25;21.70;99.90
26270;DHT22;15937;50.612;6.656;2022-07-23T09:02:29;21.90;99.90
26270;DHT22;15937;50.612;6.656;2022-07-23T09:06:33;21.20;99.90
26270;DHT22;15937;50.612;6.656;2022-07-23T09:14:51;21.10;99.90
26270;DHT22;15937;50.612;6.656;2022-07-23T09:18:57;21.30;99.90
26270;DHT22;15937;50.612;6.656;2022-07-23T09:22:59;21.40;99.90
26270;DHT22;15937;50.612;6.656;2022-07-23T09:27:13;22.20;99.90
26270;DHT22;15937;50.612;6.656;2022-07-23T09:31:15;22.30;99.90
26270;DHT22;15937;50.612;6.656;2022-07-23T09:35:17;21.90;99.90
26270;DHT22;15937;50.612;6.656;2022-07-23T09:39:30;22.20;99.90
26270;DHT22;15937;50.612;6.656;2022-07-23T09:43:31;21.70;99.90
26270;DHT22;15937;50.612;6.656;2022-07-23T09:47:35;22.40;99.90
26270;DHT22;15937;50.612;6.656;2022-07-23T09:51:52;22.40;99.90
26270;DHT22;15937;50.612;6.656;2022-07-23T09:55:57;22.60;99.90
26270;DHT22;15937;50.612;6.656;2022-07-23T10:00:07;21.90;99.90
26270;DHT22;15937;50.612;6.656;2022-07-23T10:04:11;22.50;99.90
26270;DHT22;15937;50.612;6.656;2022-07-23T10:08:16;22.30;99.90
26270;DHT22;15937;50.612;6.656;2022-07-23T10:12:19;22.00;99.90
26270;DHT22;15937;50.612;6.656;2022-07-23T10:16:40;22.70;99.90
26270;DHT22;15937;50.612;6.656;2022-07-23T10:20:42;23.00;99.90
26270;DHT22;15937;50.612;6.656;2022-07-23T10:24:59;22.70;99.90
26270;DHT22;15937;50.612;6.656;2022-07-23T10:33:56;22.70;99.90
26270;DHT22;15937;50.612;6.656;2022-07-23T10:38:19;23.60;99.90
26270;DHT22;15937;50.612;6.656;2022-07-23T10:42:33;23.90;99.90
26270;DHT22;15937;50.612;6.656;2022-07-23T10:47:00;23.70;99.90
26270;DHT22;15937;50.612;6.656;2022-07-23T10:51:22;23.00;99.90
26270;DHT22;15937;50.612;6.656;2022-07-23T10:59:27;23.60;99.90
26270;DHT22;15937;50.612;6.656;2022-07-23T11:03:33;23.70;99.40
26270;DHT22;15937;50.612;6.656;2022-07-23T11:08:18;23.60;98.30
26270;DHT22;15937;50.612;6.656;2022-07-23T11:16:29;23.20;99.90
26270;DHT22;15937;50.612;6.656;2022-07-23T11:20:31;23.90;99.90
26270;DHT22;15937;50.612;6.656;2022-07-23T11:24:50;23.30;99.90
26270;DHT22;15937;50.612;6.656;2022-07-23T11:28:52;22.90;99.90
26270;DHT22;15937;50.612;6.656;2022-07-23T11:37:37;24.20;99.90
26270;DHT22;15937;50.612;6.656;2022-07-23T11:41:44;23.90;97.50
26270;DHT22;15937;50.612;6.656;2022-07-23T11:45:48;23.50;99.90
26270;DHT22;15937;50.612;6.656;2022-07-23T11:50:04;23.90;96.50
26270;DHT22;15937;50.612;6.656;2022-07-23T11:54:06;23.90;97.10
26270;DHT22;15937;50.612;6.656;2022-07-23T11:58:08;24.20;96.00
26270;DHT22;15937;50.612;6.656;2022-07-23T12:02:10;24.40;96.60
26270;DHT22;15937;50.612;6.656;2022-07-23T12:06:12;24.50;93.50
26270;DHT22;15937;50.612;6.656;2022-07-23T12:10:27;24.20;96.20
26270;DHT22;15937;50.612;6.656;2022-07-23T12:14:29;24.70;93.60
26270;DHT22;15937;50.612;6.656;2022-07-23T12:18:31;24.40;95.20
26270;DHT22;15937;50.612;6.656;2022-07-23T12:22:37;24.50;94.70
26270;DHT22;15937;50.612;6.656;2022-07-23T12:26:39;24.10;96.30
26270;DHT22;15937;50.612;6.656;2022-07-23T12:34:42;25.00;94.70
26270;DHT22;15937;50.612;6.656;2022-07-23T12:38:48;25.50;93.60
26270;DHT22;15937;50.612;6.656;2022-07-23T12:42:56;25.10;92.50
26270;DHT22;15937;50.612;6.656;2022-07-23T12:46:58;24.80;93.30
26270;DHT22;15937;50.612;6.656;2022-07-23T12:55:06;24.30;94.40
26270;DHT22;15937;50.612;6.656;2022-07-23T12:59:31;24.30;93.50
26270;DHT22;15937;50.612;6.656;2022-07-23T13:03:39;25.00;93.90
26270;DHT22;15937;50.612;6.656;2022-07-23T13:07:42;24.50;93.90
26270;DHT22;15937;50.612;6.656;2022-07-23T13:11:45;24.70;94.60
26270;DHT22;15937;50.612;6.656;2022-07-23T13:15:49;24.80;93.10
26270;DHT22;15937;50.612;6.656;2022-07-23T13:19:53;24.70;93.80
26270;DHT22;15937;50.612;6.656;2022-07-23T13:23:57;24.60;94.60
26270;DHT22;15937;50.612;6.656;2022-07-23T13:28:08;24.60;93.50
26270;DHT22;15937;50.612;6.656;2022-07-23T13:32:13;24.40;94.50
26270;DHT22;15937;50.612;6.656;2022-07-23T13:36:14;24.70;93.50
26270;DHT22;15937;50.612;6.656;2022-07-23T13:40:16;25.10;94.40
26270;DHT22;15937;50.612;6.656;2022-07-23T13:44:18;25.50;92.80
26270;DHT22;15937;50.612;6.656;2022-07-23T13:48:23;25.00;92.50
26270;DHT22;15937;50.612;6.656;2022-07-23T13:52:25;25.00;93.10
26270;DHT22;15937;50.612;6.656;2022-07-23T13:56:27;25.20;91.80
26270;DHT22;15937;50.612;6.656;2022-07-23T14:00:30;25.00;93.90
26270;DHT22;15937;50.612;6.656;2022-07-23T14:04:52;24.80;92.80
26270;DHT22;15937;50.612;6.656;2022-07-23T14:08:54;25.10;92.80
26270;DHT22;15937;50.612;6.656;2022-07-23T14:12:56;24.90;93.20
26270;DHT22;15937;50.612;6.656;2022-07-23T14:16:59;25.00;93.10
26270;DHT22;15937;50.612;6.656;2022-07-23T14:21:02;25.20;92.50
26270;DHT22;15937;50.612;6.656;2022-07-23T14:25:05;25.00;93.30
26270;DHT22;15937;50.612;6.656;2022-07-23T14:29:08;25.00;93.00
26270;DHT22;15937;50.612;6.656;2022-07-23T14:33:10;25.00;93.60
26270;DHT22;15937;50.612;6.656;2022-07-23T14:37:12;25.20;92.50
26270;DHT22;15937;50.612;6.656;2022-07-23T14:41:15;25.10;92.50
26270;DHT22;15937;50.612;6.656;2022-07-23T14:45:17;24.70;93.00
26270;DHT22;15937;50.612;6.656;2022-07-23T14:49:20;24.80;93.40
26270;DHT22;15937;50.612;6.656;2022-07-23T14:53:22;25.10;92.10
26270;DHT22;15937;50.612;6.656;2022-07-23T14:57:26;25.10;93.20
26270;DHT22;15937;50.612;6.656;2022-07-23T15:01:28;25.20;92.80
26270;DHT22;15937;50.612;6.656;2022-07-23T15:05:30;25.40;93.00
26270;DHT22;15937;50.612;6.656;2022-07-23T15:09:32;25.20;92.00
26270;DHT22;15937;50.612;6.656;2022-07-23T15:13:35;25.30;92.10
26270;DHT22;15937;50.612;6.656;2022-07-23T15:17:36;24.80;92.40
26270;DHT22;15937;50.612;6.656;2022-07-23T15:21:38;25.00;92.70
26270;DHT22;15937;50.612;6.656;2022-07-23T15:25:43;25.20;91.60
26270;DHT22;15937;50.612;6.656;2022-07-23T15:29:51;25.30;91.50
26270;DHT22;15937;50.612;6.656;2022-07-23T15:33:53;25.40;90.00
26270;DHT22;15937;50.612;6.656;2022-07-23T15:37:57;25.20;90.50
26270;DHT22;15937;50.612;6.656;2022-07-23T15:42:02;25.20;91.60
26270;DHT22;15937;50.612;6.656;2022-07-23T15:46:05;25.20;91.30
26270;DHT22;15937;50.612;6.656;2022-07-23T15:50:27;25.00;91.60
26270;DHT22;15937;50.612;6.656;2022-07-23T15:54:28;25.10;91.50
26270;DHT22;15937;50.612;6.656;2022-07-23T15:58:31;25.00;91.80
26270;DHT22;15937;50.612;6.656;2022-07-23T16:02:33;25.00;91.80
26270;DHT22;15937;50.612;6.656;2022-07-23T16:06:35;24.90;90.60
26270;DHT22;15937;50.612;6.656;2022-07-23T16:10:38;24.90;91.60
26270;DHT22;15937;50.612;6.656;2022-07-23T16:14:40;25.00;91.20
26270;DHT22;15937;50.612;6.656;2022-07-23T16:18:42;24.90;92.00
26270;DHT22;15937;50.612;6.656;2022-07-23T16:22:44;25.00;91.60
26270;DHT22;15937;50.612;6.656;2022-07-23T16:26:46;25.30;91.20
26270;DHT22;15937;50.612;6.656;2022-07-23T16:30:48;25.20;90.50
26270;DHT22;15937;50.612;6.656;2022-07-23T16:34:49;25.10;91.20
26270;DHT22;15937;50.612;6.656;2022-07-23T16:38:53;25.00;91.10
26270;DHT22;15937;50.612;6.656;2022-07-23T16:42:54;25.00;91.70
26270;DHT22;15937;50.612;6.656;2022-07-23T16:46:56;24.90;90.80
26270;DHT22;15937;50.612;6.656;2022-07-23T16:50:58;25.10;91.00
26270;DHT22;15937;50.612;6.656;2022-07-23T16:55:07;25.30;90.60
26270;DHT22;15937;50.612;6.656;2022-07-23T16:59:09;25.50;91.10
26270;DHT22;15937;50.612;6.656;2022-07-23T17:03:11;25.50;91.10
26270;DHT22;15937;50.612;6.656;2022-07-23T17:07:12;25.20;90.30
26270;DHT22;15937;50.612;6.656;2022-07-23T17:11:15;25.30;90.70
26270;DHT22;15937;50.612;6.656;2022-07-23T17:15:18;25.30;90.90
26270;DHT22;15937;50.612;6.656;2022-07-23T17:19:20;25.50;88.40
26270;DHT22;15937;50.612;6.656;2022-07-23T17:23:22;25.50;88.50
26270;DHT22;15937;50.612;6.656;2022-07-23T17:27:24;26.00;90.00
26270;DHT22;15937;50.612;6.656;2022-07-23T17:31:27;26.70;88.20
26270;DHT22;15937;50.612;6.656;2022-07-23T17:35:29;25.80;85.10
26270;DHT22;15937;50.612;6.656;2022-07-23T17:39:30;25.60;87.70
26270;DHT22;15937;50.612;6.656;2022-07-23T17:43:32;26.10;88.00
26270;DHT22;15937;50.612;6.656;2022-07-23T17:47:34;26.20;86.40
26270;DHT22;15937;50.612;6.656;2022-07-23T17:51:36;26.60;83.70
26270;DHT22;15937;50.612;6.656;2022-07-23T17:55:38;26.40;85.30
26270;DHT22;15937;50.612;6.656;2022-07-23T17:59:41;25.80;85.30
26270;DHT22;15937;50.612;6.656;2022-07-23T18:03:43;25.70;85.90
26270;DHT22;15937;50.612;6.656;2022-07-23T18:07:47;25.30;85.20
26270;DHT22;15937;50.612;6.656;2022-07-23T18:11:49;24.80;88.10
26270;DHT22;15937;50.612;6.656;2022-07-23T18:15:54;24.60;90.50
26270;DHT22;15937;50.612;6.656;2022-07-23T18:19:56;25.00;90.70
26270;DHT22;15937;50.612;6.656;2022-07-23T18:23:59;24.50;90.40
26270;DHT22;15937;50.612;6.656;2022-07-23T18:28:01;24.30;91.10
26270;DHT22;15937;50.612;6.656;2022-07-23T18:32:03;24.30;92.40
26270;DHT22;15937;50.612;6.656;2022-07-23T18:36:06;24.10;92.40
26270;DHT22;15937;50.612;6.656;2022-07-23T18:40:08;24.00;92.70
26270;DHT22;15937;50.612;6.656;2022-07-23T18:44:11;24.00;92.40
26270;DHT22;15937;50.612;6.656;2022-07-23T18:48:14;24.00;92.50
26270;DHT22;15937;50.612;6.656;2022-07-23T18:52:17;23.80;93.00
26270;DHT22;15937;50.612;6.656;2022-07-23T18:56:19;23.70;94.00
26270;DHT22;15937;50.612;6.656;2022-07-23T19:00:20;24.10;94.00
26270;DHT22;15937;50.612;6.656;2022-07-23T19:04:22;24.30;95.20
26270;DHT22;15937;50.612;6.656;2022-07-23T19:08:24;24.10;95.70
26270;DHT22;15937;50.612;6.656;2022-07-23T19:12:26;24.00;97.30
26270;DHT22;15937;50.612;6.656;2022-07-23T19:16:28;23.80;97.60
26270;DHT22;15937;50.612;6.656;2022-07-23T19:20:30;23.80;98.10
26270;DHT22;15937;50.612;6.656;2022-07-23T19:24:32;23.60;98.60
26270;DHT22;15937;50.612;6.656;2022-07-23T19:28:34;23.60;99.00
26270;DHT22;15937;50.612;6.656;2022-07-23T19:32:37;23.40;98.80
26270;DHT22;15937;50.612;6.656;2022-07-23T19:36:39;23.30;98.70
26270;DHT22;15937;50.612;6.656;2022-07-23T19:40:41;23.40;99.30
26270;DHT22;15937;50.612;6.656;2022-07-23T19:44:42;23.20;99.70
26270;DHT22;15937;50.612;6.656;2022-07-23T19:48:46;23.20;99.20
26270;DHT22;15937;50.612;6.656;2022-07-23T19:52:48;23.10;99.90
26270;DHT22;15937;50.612;6.656;2022-07-23T19:56:50;22.70;99.90
26270;DHT22;15937;50.612;6.656;2022-07-23T20:00:52;22.70;99.90
26270;DHT22;15937;50.612;6.656;2022-07-23T20:04:54;22.70;99.90
26270;DHT22;15937;50.612;6.656;2022-07-23T20:08:56;22.50;99.90
26270;DHT22;15937;50.612;6.656;2022-07-23T20:12:58;22.30;99.90
26270;DHT22;15937;50.612;6.656;2022-07-23T20:17:00;22.40;99.90
26270;DHT22;15937;50.612;6.656;2022-07-23T20:21:02;22.10;99.90
26270;DHT22;15937;50.612;6.656;2022-07-23T20:25:05;21.90;99.90
26270;DHT22;15937;50.612;6.656;2022-07-23T20:29:08;21.80;99.90
26270;DHT22;15937;50.612;6.656;2022-07-23T20:33:09;21.60;99.90
26270;DHT22;15937;50.612;6.656;2022-07-23T20:37:11;21.70;99.90
26270;DHT22;15937;50.612;6.656;2022-07-23T20:41:13;21.40;99.90
26270;DHT22;15937;50.612;6.656;2022-07-23T20:45:15;21.10;99.90
26270;DHT22;15937;50.612;6.656;2022-07-23T20:49:17;20.60;99.90
26270;DHT22;15937;50.612;6.656;2022-07-23T20:53:19;20.50;99.90
26270;DHT22;15937;50.612;6.656;2022-07-23T20:57:21;20.30;99.90
26270;DHT22;15937;50.612;6.656;2022-07-23T21:01:23;20.60;99.90
26270;DHT22;15937;50.612;6.656;2022-07-23T21:05:25;20.60;99.90
26270;DHT22;15937;50.612;6.656;2022-07-23T21:09:27;20.40;99.90
26270;DHT22;15937;50.612;6.656;2022-07-23T21:13:29;20.10;99.90
26270;DHT22;15937;50.612;6.656;2022-07-23T21:17:31;20.10;99.90
26270;DHT22;15937;50.612;6.656;2022-07-23T21:21:33;19.90;99.90
26270;DHT22;15937;50.612;6.656;2022-07-23T21:25:35;19.80;99.90
26270;DHT22;15937;50.612;6.656;2022-07-23T21:29:37;19.60;99.90
26270;DHT22;15937;50.612;6.656;2022-07-23T21:33:39;19.60;99.90
26270;DHT22;15937;50.612;6.656;2022-07-23T21:38:04;19.90;99.90
26270;DHT22;15937;50.612;6.656;2022-07-23T21:42:05;19.80;99.90
26270;DHT22;15937;50.612;6.656;2022-07-23T21:46:08;19.70;99.90
26270;DHT22;15937;50.612;6.656;2022-07-23T21:50:10;19.80;99.90
26270;DHT22;15937;50.612;6.656;2022-07-23T21:54:12;19.90;99.90
26270;DHT22;15937;50.612;6.656;2022-07-23T21:58:17;19.80;99.90
26270;DHT22;15937;50.612;6.656;2022-07-23T22:02:19;19.70;99.90
26270;DHT22;15937;50.612;6.656;2022-07-23T22:06:21;19.70;99.90
26270;DHT22;15937;50.612;6.656;2022-07-23T22:10:23;19.60;99.90
26270;DHT22;15937;50.612;6.656;2022-07-23T22:14:25;19.20;99.90
26270;DHT22;15937;50.612;6.656;2022-07-23T22:18:26;19.40;99.90
26270;DHT22;15937;50.612;6.656;2022-07-23T22:22:29;19.30;99.90
26270;DHT22;15937;50.612;6.656;2022-07-23T22:26:30;19.00;99.90
26270;DHT22;15937;50.612;6.656;2022-07-23T22:30:32;18.70;99.90
26270;DHT22;15937;50.612;6.656;2022-07-23T22:34:34;19.10;99.90
26270;DHT22;15937;50.612;6.656;2022-07-23T22:38:36;19.20;99.90
26270;DHT22;15937;50.612;6.656;2022-07-23T22:42:38;19.30;99.90
26270;DHT22;15937;50.612;6.656;2022-07-23T22:46:40;19.00;99.90
26270;DHT22;15937;50.612;6.656;2022-07-23T22:50:43;18.70;99.90
26270;DHT22;15937;50.612;6.656;2022-07-23T22:54:48;18.60;99.90
26270;DHT22;15937;50.612;6.656;2022-07-23T22:58:50;18.40;99.90
26270;DHT22;15937;50.612;6.656;2022-07-23T23:03:11;18.20;99.90
26270;DHT22;15937;50.612;6.656;2022-07-23T23:07:13;18.40;99.90
26270;DHT22;15937;50.612;6.656;2022-07-23T23:11:15;18.20;99.90
26270;DHT22;15937;50.612;6.656;2022-07-23T23:15:17;18.00;99.90
26270;DHT22;15937;50.612;6.656;2022-07-23T23:19:19;18.00;99.90
26270;DHT22;15937;50.612;6.656;2022-07-23T23:23:21;17.90;99.90
26270;DHT22;15937;50.612;6.656;2022-07-23T23:27:24;18.10;99.90
26270;DHT22;15937;50.612;6.656;2022-07-23T23:31:25;18.40;99.90
26270;DHT22;15937;50.612;6.656;2022-07-23T23:35:27;18.30;99.90
26270;DHT22;15937;50.612;6.656;2022-07-23T23:39:29;17.90;99.90
26270;DHT22;15937;50.612;6.656;2022-07-23T23:43:31;17.80;99.90
26270;DHT22;15937;50.612;6.656;2022-07-23T23:47:32;17.70;99.90
26270;DHT22;15937;50.612;6.656;2022-07-23T23:51:34;17.90;99.90
26270;DHT22;15937;50.612;6.656;2022-07-23T23:55:40;17.90;99.90
26270;DHT22;15937;50.612;6.656;2022-07-23T23:59:42;17.90;99.90
